Shawano, WI

4:44 PM CDT on October 23, 2014 (GMT -0500)
Clintonville Municipal | Change Station
CLOSE
Current Station
Airport
Location: Clintonville,
Elevation: 823 ft
Nearby Weather Stations

Elev 823 ft 44.62 °N, 88.73 °W | Updated 9 minutes ago

Rain
Rain
46 °F
Feels Like 44 °F
N
6
Wind Variable Wind from South

Today
High -- | Low -- °F
--% Chance of Precip.
Yesterday
High -- | Low -- °F
Precip. -- in
7:20 AM 5:56 PM
Waning Crescent, 0% visible
Pressure 30.04 in
Visibility 5.0 miles
Clouds Overcast 800 ft
Windchill 44 °F
Dew Point 45 °F
Humidity 93%
Rainfall 0.33 in
Snow Depth Not available.
UV 0 out of 12
Pollen .10 out of 12
Air Quality Not available.
Flu Activity Sporadic
METAR KCLI 232135Z AUTO 19005KT 5SM BR OVC008 08/07 A3004 RMK AO2

More Conditions Fewer Conditions

Pressure 30.04 in
Visibility 5.0 miles
Clouds Overcast 800 ft
Windchill 44 °F
Dew Point 45 °F
Humidity 93%
Rainfall 0.33 in
Snow Depth Not available.
UV 0 out of 12
Pollen .10 out of 12
Air Quality Not available.
Flu Activity Sporadic
METAR KCLI 232135Z AUTO 19005KT 5SM BR OVC008 08/07 A3004 RMK AO2

More Conditions Fewer Conditions

10-Day Weather Forecast

Almanac

Astronomy

Oct. 23, 2014 Rise Set
Actual Time 7:20 AM CDT 5:56 PM CDT
Civil Twilight 6:50 AM CDT 6:26 PM CDT
Nautical Twilight 6:16 AM CDT 7:00 PM CDT
Astronomical Twilight 5:42 AM CDT 7:34 PM CDT
Moon 6:58 AM CDT 5:57 PM CDT
Length of Visible Light 11h 35m
Length of Day
10h 36m
Tomorrow will be 2m 55s shorter.
Waning Crescent, 0% of the Moon is Illuminated
Today
Waning Crescent
Oct 23
New
Oct 30
First Quarter
Nov 6
Full
Nov 14
Last Quarter

Today's Extremes

State Highs State Lows

Community

WunderPhotos

Upload Photos

1,764,381 photos uploaded!

WunderBlogs® & News

Nearby

Snow Depth

Station Depth Elevation
No new snow has been reported.

Earthquake Activity

City Distance Mag. Time & Date
No recent earthquake activity has been reported nearby.
Minimum magnitude displayed is 2.5.

Coastal Water Temperatures

Place Temperature
No Stations Reporting

Nearby Weather Stations